PWSweather.com
Personal Weather Stations
Station Observations
ILOMBARD30
LodiIT 26900

LodiIT 26900

Lat: 45.2993, Lon: 9.5207

Elevation: 255

Station Type: Davis Vantege Pro2 Plus 24h

http://www.meteo-iw2gob.it

High Low Average
Temperature 61.8°F16.6°C 35.2°F1.8°C 49.1°F9.5°C
Dew Point 39.4°F4.1°C 23.5°F-4.7°C 32.0°F0.0°C
Winds 11.5 mph 18.5 kmh Calm Calm 4.0 mph W6.4 kmh W
Wind Gusts 16.1 mph25.9 kmh -- 5.0 mph8.0 kmh
Humidity 93% 23% 59%
Pressure 29.96 in1014.6 mb 29.74 in1007.1 mb -
Precipitation 0.00 in0.0 mm - -
Hour Temp Dew Point Humidity Winds Wind Gusts Pressure Precip Precip Rate Daily Precip Total
12:00 AM 39.8°F4.3°C 36.2°F2.3°C 87% 1.2 mph NNW1.9 kmh NNW 2.3 mph3.7 kmh 29.92 in1013.2 mb - 0.00 in0.0 mm 0.00 in0.0 mm
12:05 AM 39.8°F4.3°C 36.2°F2.3°C 87% 2.3 mph NNW3.7 kmh NNW 3.5 mph5.6 kmh 29.92 in1013.2 mb - 0.00 in0.0 mm 0.00 in0.0 mm
12:10 AM 39.7°F4.3°C 36.1°F2.3°C 87% 2.3 mph NNW3.7 kmh NNW 3.5 mph5.6 kmh 29.92 in1013.2 mb - 0.00 in0.0 mm 0.00 in0.0 mm
12:15 AM 39.7°F4.3°C 36.1°F2.3°C 87% 2.3 mph NNW3.7 kmh NNW 3.5 mph5.6 kmh 29.92 in1013.2 mb - 0.00 in0.0 mm 0.00 in0.0 mm
12:20 AM 39.6°F4.2°C 36.0°F2.2°C 87% 2.3 mph NNW3.7 kmh NNW 2.3 mph3.7 kmh 29.93 in1013.5 mb - 0.00 in0.0 mm 0.00 in0.0 mm
12:25 AM 39.5°F4.2°C 36.0°F2.2°C 87% 2.3 mph NNW3.7 kmh NNW 3.5 mph5.6 kmh 29.93 in1013.5 mb - 0.00 in0.0 mm 0.00 in0.0 mm
12:30 AM 39.4°F4.1°C 35.8°F2.1°C 87% 2.3 mph NNW3.7 kmh NNW 3.5 mph5.6 kmh 29.93 in1013.5 mb - 0.00 in0.0 mm 0.00 in0.0 mm
12:35 AM 39.2°F4.0°C 35.7°F2.1°C 87% 2.3 mph NNW3.7 kmh NNW 3.5 mph5.6 kmh 29.93 in1013.5 mb - 0.00 in0.0 mm 0.00 in0.0 mm
12:40 AM 39.1°F3.9°C 35.6°F2.0°C 87% 1.2 mph NNW1.9 kmh NNW 2.3 mph3.7 kmh 29.93 in1013.5 mb - 0.00 in0.0 mm 0.00 in0.0 mm
12:45 AM 39.0°F3.9°C 35.5°F1.9°C 87% 2.3 mph WNW3.7 kmh WNW 3.5 mph5.6 kmh 29.93 in1013.5 mb - 0.00 in0.0 mm 0.00 in0.0 mm
12:50 AM 39.2°F4.0°C 35.9°F2.2°C 88% 2.3 mph W3.7 kmh W 3.5 mph5.6 kmh 29.94 in1013.9 mb - 0.00 in0.0 mm 0.00 in0.0 mm
12:55 AM 39.3°F4.1°C 36.0°F2.2°C 88% 2.3 mph W3.7 kmh W 3.5 mph5.6 kmh 29.94 in1013.9 mb - 0.00 in0.0 mm 0.00 in0.0 mm
01:00 AM 39.3°F4.1°C 36.0°F2.2°C 88% 2.3 mph W3.7 kmh W 3.5 mph5.6 kmh 29.94 in1013.9 mb - 0.00 in0.0 mm 0.00 in0.0 mm
01:05 AM 39.3°F4.1°C 36.0°F2.2°C 88% 2.3 mph W3.7 kmh W 3.5 mph5.6 kmh 29.94 in1013.9 mb - 0.00 in0.0 mm 0.00 in0.0 mm
01:10 AM 39.1°F3.9°C 35.9°F2.2°C 88% 2.3 mph W3.7 kmh W 3.5 mph5.6 kmh 29.94 in1013.9 mb - 0.00 in0.0 mm 0.00 in0.0 mm
01:15 AM 39.1°F3.9°C 35.8°F2.1°C 88% 1.2 mph W1.9 kmh W 2.3 mph3.7 kmh 29.93 in1013.5 mb - 0.00 in0.0 mm 0.00 in0.0 mm
01:20 AM 39.0°F3.9°C 35.7°F2.1°C 88% Calm Calm -- 29.94 in1013.9 mb - 0.00 in0.0 mm 0.00 in0.0 mm
01:25 AM 39.0°F3.9°C 35.7°F2.1°C 88% Calm Calm -- 29.94 in1013.9 mb - 0.00 in0.0 mm 0.00 in0.0 mm
01:30 AM 38.9°F3.8°C 35.6°F2.0°C 88% Calm Calm 3.5 mph5.6 kmh 29.94 in1013.9 mb - 0.00 in0.0 mm 0.00 in0.0 mm
01:35 AM 38.9°F3.8°C 35.6°F2.0°C 88% 2.3 mph W3.7 kmh W 2.3 mph3.7 kmh 29.94 in1013.9 mb - 0.00 in0.0 mm 0.00 in0.0 mm
01:40 AM 39.0°F3.9°C 35.7°F2.1°C 88% Calm Calm -- 29.94 in1013.9 mb - 0.00 in0.0 mm 0.00 in0.0 mm
01:45 AM 38.9°F3.8°C 35.7°F2.1°C 88% Calm Calm -- 29.94 in1013.9 mb - 0.00 in0.0 mm 0.00 in0.0 mm
01:50 AM 38.9°F3.8°C 35.6°F2.0°C 88% 1.2 mph W1.9 kmh W 2.3 mph3.7 kmh 29.94 in1013.9 mb - 0.00 in0.0 mm 0.00 in0.0 mm
01:55 AM 38.8°F3.8°C 35.6°F2.0°C 88% 1.2 mph W1.9 kmh W 1.2 mph1.9 kmh 29.94 in1013.9 mb - 0.00 in0.0 mm 0.00 in0.0 mm
02:00 AM 38.7°F3.7°C 35.5°F1.9°C 88% Calm Calm 1.2 mph1.9 kmh 29.94 in1013.9 mb - 0.00 in0.0 mm 0.00 in0.0 mm
02:05 AM 38.5°F3.6°C 35.3°F1.8°C 88% 1.2 mph W1.9 kmh W 2.3 mph3.7 kmh 29.94 in1013.9 mb - 0.00 in0.0 mm 0.00 in0.0 mm
02:10 AM 38.3°F3.5°C 35.0°F1.7°C 88% 1.2 mph W1.9 kmh W 1.2 mph1.9 kmh 29.94 in1013.9 mb - 0.00 in0.0 mm 0.00 in0.0 mm
02:15 AM 38.1°F3.4°C 34.9°F1.6°C 88% 1.2 mph W1.9 kmh W 2.3 mph3.7 kmh 29.94 in1013.9 mb - 0.00 in0.0 mm 0.00 in0.0 mm
02:20 AM 37.9°F3.3°C 34.7°F1.5°C 88% 2.3 mph W3.7 kmh W 3.5 mph5.6 kmh 29.94 in1013.9 mb - 0.00 in0.0 mm 0.00 in0.0 mm
02:25 AM 37.9°F3.3°C 34.7°F1.5°C 88% 2.3 mph W3.7 kmh W 3.5 mph5.6 kmh 29.94 in1013.9 mb - 0.00 in0.0 mm 0.00 in0.0 mm
02:30 AM 37.9°F3.3°C 34.9°F1.6°C 89% 2.3 mph W3.7 kmh W 3.5 mph5.6 kmh 29.95 in1014.2 mb - 0.00 in0.0 mm 0.00 in0.0 mm
02:35 AM 37.8°F3.2°C 34.8°F1.6°C 89% 1.2 mph W1.9 kmh W 2.3 mph3.7 kmh 29.95 in1014.2 mb - 0.00 in0.0 mm 0.00 in0.0 mm
02:40 AM 37.8°F3.2°C 34.8°F1.6°C 89% 2.3 mph W3.7 kmh W 3.5 mph5.6 kmh 29.95 in1014.2 mb - 0.00 in0.0 mm 0.00 in0.0 mm
02:45 AM 37.9°F3.3°C 34.9°F1.6°C 89% 1.2 mph W1.9 kmh W 2.3 mph3.7 kmh 29.94 in1013.9 mb - 0.00 in0.0 mm 0.00 in0.0 mm
02:50 AM 38.1°F3.4°C 35.4°F1.9°C 90% 1.2 mph W1.9 kmh W 1.2 mph1.9 kmh 29.94 in1013.9 mb - 0.00 in0.0 mm 0.00 in0.0 mm
02:55 AM 38.3°F3.5°C 35.6°F2.0°C 90% 1.2 mph W1.9 kmh W 2.3 mph3.7 kmh 29.94 in1013.9 mb - 0.00 in0.0 mm 0.00 in0.0 mm
03:00 AM 38.4°F3.6°C 35.7°F2.1°C 90% 1.2 mph W1.9 kmh W 2.3 mph3.7 kmh 29.94 in1013.9 mb - 0.00 in0.0 mm 0.00 in0.0 mm
03:05 AM 38.4°F3.6°C 35.7°F2.1°C 90% Calm Calm -- 29.94 in1013.9 mb - 0.00 in0.0 mm 0.00 in0.0 mm
03:10 AM 38.5°F3.6°C 35.8°F2.1°C 90% 1.2 mph W1.9 kmh W 2.3 mph3.7 kmh 29.94 in1013.9 mb - 0.00 in0.0 mm 0.00 in0.0 mm
03:15 AM 38.5°F3.6°C 35.8°F2.1°C 90% 1.2 mph W1.9 kmh W 2.3 mph3.7 kmh 29.94 in1013.9 mb - 0.00 in0.0 mm 0.00 in0.0 mm
03:20 AM 38.5°F3.6°C 35.8°F2.1°C 90% 2.3 mph W3.7 kmh W 2.3 mph3.7 kmh 29.94 in1013.9 mb - 0.00 in0.0 mm 0.00 in0.0 mm
03:25 AM 38.5°F3.6°C 35.8°F2.1°C 90% Calm Calm -- 29.94 in1013.9 mb - 0.00 in0.0 mm 0.00 in0.0 mm
03:30 AM 38.5°F3.6°C 35.8°F2.1°C 90% Calm Calm -- 29.94 in1013.9 mb - 0.00 in0.0 mm 0.00 in0.0 mm
03:35 AM 38.4°F3.6°C 35.7°F2.1°C 90% Calm Calm -- 29.94 in1013.9 mb - 0.00 in0.0 mm 0.00 in0.0 mm
03:40 AM 38.4°F3.6°C 35.7°F2.1°C 90% 1.2 mph W1.9 kmh W 1.2 mph1.9 kmh 29.93 in1013.5 mb - 0.00 in0.0 mm 0.00 in0.0 mm
03:45 AM 38.4°F3.6°C 35.7°F2.1°C 90% 1.2 mph W1.9 kmh W 2.3 mph3.7 kmh 29.94 in1013.9 mb - 0.00 in0.0 mm 0.00 in0.0 mm
03:50 AM 38.4°F3.6°C 35.7°F2.1°C 90% Calm Calm -- 29.94 in1013.9 mb - 0.00 in0.0 mm 0.00 in0.0 mm
03:55 AM 38.3°F3.5°C 35.6°F2.0°C 90% Calm Calm 1.2 mph1.9 kmh 29.94 in1013.9 mb - 0.00 in0.0 mm 0.00 in0.0 mm
04:00 AM 38.1°F3.4°C 35.4°F1.9°C 90% 2.3 mph W3.7 kmh W 3.5 mph5.6 kmh 29.94 in1013.9 mb - 0.00 in0.0 mm 0.00 in0.0 mm
04:05 AM 37.6°F3.1°C 34.7°F1.5°C 89% 2.3 mph WSW3.7 kmh WSW 3.5 mph5.6 kmh 29.94 in1013.9 mb - 0.00 in0.0 mm 0.00 in0.0 mm
04:10 AM 37.0°F2.8°C 34.1°F1.2°C 89% 3.5 mph SW5.6 kmh SW 3.5 mph5.6 kmh 29.94 in1013.9 mb - 0.00 in0.0 mm 0.00 in0.0 mm
04:15 AM 36.6°F2.6°C 33.7°F0.9°C 89% 4.6 mph SW7.4 kmh SW 5.8 mph9.3 kmh 29.94 in1013.9 mb - 0.00 in0.0 mm 0.00 in0.0 mm
04:20 AM 36.3°F2.4°C 33.4°F0.8°C 89% 1.2 mph WSW1.9 kmh WSW 3.5 mph5.6 kmh 29.95 in1014.2 mb - 0.00 in0.0 mm 0.00 in0.0 mm
04:25 AM 36.2°F2.3°C 33.5°F0.8°C 90% 3.5 mph WSW5.6 kmh WSW 4.6 mph7.4 kmh 29.95 in1014.2 mb - 0.00 in0.0 mm 0.00 in0.0 mm
04:30 AM 36.1°F2.3°C 33.5°F0.8°C 90% Calm Calm 2.3 mph3.7 kmh 29.94 in1013.9 mb - 0.00 in0.0 mm 0.00 in0.0 mm
04:35 AM 36.1°F2.3°C 33.5°F0.8°C 90% 2.3 mph WSW3.7 kmh WSW 3.5 mph5.6 kmh 29.95 in1014.2 mb - 0.00 in0.0 mm 0.00 in0.0 mm
04:40 AM 36.2°F2.3°C 33.5°F0.8°C 90% 2.3 mph WSW3.7 kmh WSW 3.5 mph5.6 kmh 29.95 in1014.2 mb - 0.00 in0.0 mm 0.00 in0.0 mm
04:45 AM 36.3°F2.4°C 33.9°F1.1°C 91% 4.6 mph WSW7.4 kmh WSW 5.8 mph9.3 kmh 29.95 in1014.2 mb - 0.00 in0.0 mm 0.00 in0.0 mm
04:50 AM 36.4°F2.4°C 34.0°F1.1°C 91% 3.5 mph WSW5.6 kmh WSW 5.8 mph9.3 kmh 29.95 in1014.2 mb - 0.00 in0.0 mm 0.00 in0.0 mm
04:55 AM 36.4°F2.4°C 34.0°F1.1°C 91% 3.5 mph WSW5.6 kmh WSW 4.6 mph7.4 kmh 29.95 in1014.2 mb - 0.00 in0.0 mm 0.00 in0.0 mm
05:00 AM 36.5°F2.5°C 34.1°F1.2°C 91% 3.5 mph WSW5.6 kmh WSW 3.5 mph5.6 kmh 29.95 in1014.2 mb - 0.00 in0.0 mm 0.00 in0.0 mm
05:05 AM 36.5°F2.5°C 34.2°F1.2°C 91% 3.5 mph WSW5.6 kmh WSW 4.6 mph7.4 kmh 29.95 in1014.2 mb - 0.00 in0.0 mm 0.00 in0.0 mm
05:10 AM 36.7°F2.6°C 34.3°F1.3°C 91% 2.3 mph WSW3.7 kmh WSW 3.5 mph5.6 kmh 29.95 in1014.2 mb - 0.00 in0.0 mm 0.00 in0.0 mm
05:15 AM 36.8°F2.7°C 34.7°F1.5°C 92% 2.3 mph WSW3.7 kmh WSW 3.5 mph5.6 kmh 29.95 in1014.2 mb - 0.00 in0.0 mm 0.00 in0.0 mm
05:20 AM 36.9°F2.7°C 34.8°F1.6°C 92% 3.5 mph WSW5.6 kmh WSW 3.5 mph5.6 kmh 29.95 in1014.2 mb - 0.00 in0.0 mm 0.00 in0.0 mm
05:25 AM 37.0°F2.8°C 34.9°F1.6°C 92% 3.5 mph WSW5.6 kmh WSW 3.5 mph5.6 kmh 29.95 in1014.2 mb - 0.00 in0.0 mm 0.00 in0.0 mm
05:30 AM 37.1°F2.8°C 35.0°F1.7°C 92% 2.3 mph WSW3.7 kmh WSW 3.5 mph5.6 kmh 29.95 in1014.2 mb - 0.00 in0.0 mm 0.00 in0.0 mm
05:35 AM 37.1°F2.8°C 35.0°F1.7°C 92% 3.5 mph WSW5.6 kmh WSW 4.6 mph7.4 kmh 29.95 in1014.2 mb - 0.00 in0.0 mm 0.00 in0.0 mm
05:40 AM 37.3°F2.9°C 35.2°F1.8°C 92% 3.5 mph WSW5.6 kmh WSW 3.5 mph5.6 kmh 29.95 in1014.2 mb - 0.00 in0.0 mm 0.00 in0.0 mm
05:45 AM 37.3°F2.9°C 35.2°F1.8°C 92% Calm Calm -- 29.95 in1014.2 mb - 0.00 in0.0 mm 0.00 in0.0 mm
05:50 AM 37.3°F2.9°C 35.2°F1.8°C 92% Calm Calm -- 29.95 in1014.2 mb - 0.00 in0.0 mm 0.00 in0.0 mm
05:55 AM 37.3°F2.9°C 35.2°F1.8°C 92% Calm Calm -- 29.95 in1014.2 mb - 0.00 in0.0 mm 0.00 in0.0 mm
06:00 AM 37.1°F2.8°C 34.8°F1.6°C 91% Calm Calm 1.2 mph1.9 kmh 29.95 in1014.2 mb - 0.00 in0.0 mm 0.00 in0.0 mm
06:05 AM 37.0°F2.8°C 34.7°F1.5°C 91% Calm Calm -- 29.95 in1014.2 mb - 0.00 in0.0 mm 0.00 in0.0 mm
06:10 AM 37.1°F2.8°C 35.0°F1.7°C 92% 3.5 mph WSW5.6 kmh WSW 3.5 mph5.6 kmh 29.95 in1014.2 mb - 0.00 in0.0 mm 0.00 in0.0 mm
06:15 AM 37.2°F2.9°C 35.1°F1.7°C 92% 3.5 mph SW5.6 kmh SW 4.6 mph7.4 kmh 29.95 in1014.2 mb - 0.00 in0.0 mm 0.00 in0.0 mm
06:20 AM 37.3°F2.9°C 35.2°F1.8°C 92% 2.3 mph SW3.7 kmh SW 4.6 mph7.4 kmh 29.96 in1014.6 mb - 0.00 in0.0 mm 0.00 in0.0 mm
06:25 AM 37.2°F2.9°C 35.1°F1.7°C 92% 3.5 mph SW5.6 kmh SW 4.6 mph7.4 kmh 29.95 in1014.2 mb - 0.00 in0.0 mm 0.00 in0.0 mm
06:30 AM 37.0°F2.8°C 34.6°F1.4°C 91% 1.2 mph SW1.9 kmh SW 3.5 mph5.6 kmh 29.96 in1014.6 mb - 0.00 in0.0 mm 0.00 in0.0 mm
06:35 AM 36.7°F2.6°C 34.3°F1.3°C 91% 2.3 mph WSW3.7 kmh WSW 4.6 mph7.4 kmh 29.96 in1014.6 mb - 0.00 in0.0 mm 0.00 in0.0 mm
06:40 AM 36.3°F2.4°C 33.9°F1.1°C 91% 3.5 mph SW5.6 kmh SW 3.5 mph5.6 kmh 29.96 in1014.6 mb - 0.00 in0.0 mm 0.00 in0.0 mm
06:45 AM 36.0°F2.2°C 33.6°F0.9°C 91% 3.5 mph SW5.6 kmh SW 5.8 mph9.3 kmh 29.96 in1014.6 mb - 0.00 in0.0 mm 0.00 in0.0 mm
06:50 AM 35.6°F2.0°C 33.3°F0.7°C 91% 3.5 mph SW5.6 kmh SW 5.8 mph9.3 kmh 29.95 in1014.2 mb - 0.00 in0.0 mm 0.00 in0.0 mm
06:55 AM 35.3°F1.8°C 33.0°F0.6°C 91% 3.5 mph SW5.6 kmh SW 4.6 mph7.4 kmh 29.95 in1014.2 mb - 0.00 in0.0 mm 0.00 in0.0 mm
07:00 AM 35.2°F1.8°C 32.8°F0.4°C 91% 4.6 mph WSW7.4 kmh WSW 5.8 mph9.3 kmh 29.95 in1014.2 mb - 0.00 in0.0 mm 0.00 in0.0 mm
07:05 AM 35.2°F1.8°C 33.1°F0.6°C 92% 3.5 mph WSW5.6 kmh WSW 3.5 mph5.6 kmh 29.94 in1013.9 mb - 0.00 in0.0 mm 0.00 in0.0 mm
07:10 AM 35.6°F2.0°C 33.5°F0.8°C 92% 2.3 mph WSW3.7 kmh WSW 5.8 mph9.3 kmh 29.94 in1013.9 mb - 0.00 in0.0 mm 0.00 in0.0 mm
07:15 AM 36.0°F2.2°C 33.9°F1.1°C 92% 3.5 mph WSW5.6 kmh WSW 4.6 mph7.4 kmh 29.94 in1013.9 mb - 0.00 in0.0 mm 0.00 in0.0 mm
07:20 AM 36.3°F2.4°C 34.2°F1.2°C 92% 3.5 mph WSW5.6 kmh WSW 3.5 mph5.6 kmh 29.94 in1013.9 mb - 0.00 in0.0 mm 0.00 in0.0 mm
07:25 AM 36.5°F2.5°C 34.4°F1.3°C 92% 2.3 mph SW3.7 kmh SW 4.6 mph7.4 kmh 29.95 in1014.2 mb - 0.00 in0.0 mm 0.00 in0.0 mm
07:30 AM 36.7°F2.6°C 34.6°F1.4°C 92% 1.2 mph SW1.9 kmh SW 1.2 mph1.9 kmh 29.95 in1014.2 mb - 0.00 in0.0 mm 0.00 in0.0 mm
07:35 AM 36.9°F2.7°C 34.8°F1.6°C 92% 1.2 mph SW1.9 kmh SW 1.2 mph1.9 kmh 29.95 in1014.2 mb - 0.00 in0.0 mm 0.00 in0.0 mm
07:40 AM 37.2°F2.9°C 35.1°F1.7°C 92% 1.2 mph SW1.9 kmh SW 2.3 mph3.7 kmh 29.95 in1014.2 mb - 0.00 in0.0 mm 0.00 in0.0 mm
07:45 AM 37.5°F3.1°C 35.6°F2.0°C 93% 2.3 mph WNW3.7 kmh WNW 3.5 mph5.6 kmh 29.95 in1014.2 mb - 0.00 in0.0 mm 0.00 in0.0 mm
07:50 AM 37.7°F3.2°C 35.6°F2.0°C 92% 3.5 mph WSW5.6 kmh WSW 5.8 mph9.3 kmh 29.95 in1014.2 mb - 0.00 in0.0 mm 0.00 in0.0 mm
07:55 AM 37.9°F3.3°C 35.8°F2.1°C 92% 4.6 mph WSW7.4 kmh WSW 5.8 mph9.3 kmh 29.95 in1014.2 mb - 0.00 in0.0 mm 0.00 in0.0 mm
08:00 AM 38.0°F3.3°C 35.9°F2.2°C 92% 4.6 mph W7.4 kmh W 4.6 mph7.4 kmh 29.95 in1014.2 mb - 0.00 in0.0 mm 0.00 in0.0 mm
08:05 AM 38.1°F3.4°C 35.9°F2.2°C 92% 2.3 mph WSW3.7 kmh WSW 3.5 mph5.6 kmh 29.95 in1014.2 mb - 0.00 in0.0 mm 0.00 in0.0 mm
08:10 AM 38.2°F3.4°C 36.1°F2.3°C 92% 3.5 mph W5.6 kmh W 4.6 mph7.4 kmh 29.95 in1014.2 mb - 0.00 in0.0 mm 0.00 in0.0 mm
08:15 AM 38.4°F3.6°C 36.0°F2.2°C 91% 3.5 mph W5.6 kmh W 3.5 mph5.6 kmh 29.95 in1014.2 mb - 0.00 in0.0 mm 0.00 in0.0 mm
08:20 AM 38.8°F3.8°C 36.4°F2.4°C 91% 2.3 mph W3.7 kmh W 3.5 mph5.6 kmh 29.94 in1013.9 mb - 0.00 in0.0 mm 0.00 in0.0 mm
08:25 AM 39.2°F4.0°C 36.5°F2.5°C 90% 3.5 mph W5.6 kmh W 6.9 mph11.1 kmh 29.94 in1013.9 mb - 0.00 in0.0 mm 0.00 in0.0 mm
08:30 AM 39.7°F4.3°C 36.7°F2.6°C 89% 4.6 mph WSW7.4 kmh WSW 6.9 mph11.1 kmh 29.94 in1013.9 mb - 0.00 in0.0 mm 0.00 in0.0 mm
08:35 AM 40.1°F4.5°C 36.8°F2.7°C 88% 5.8 mph WSW9.3 kmh WSW 6.9 mph11.1 kmh 29.94 in1013.9 mb - 0.00 in0.0 mm 0.00 in0.0 mm
08:40 AM 40.3°F4.6°C 36.5°F2.5°C 86% 5.8 mph WSW9.3 kmh WSW 8.1 mph13.0 kmh 29.94 in1013.9 mb - 0.00 in0.0 mm 0.00 in0.0 mm
08:45 AM 40.5°F4.7°C 36.4°F2.4°C 85% 6.9 mph WSW11.1 kmh WSW 8.1 mph13.0 kmh 29.94 in1013.9 mb - 0.00 in0.0 mm 0.00 in0.0 mm
08:50 AM 40.7°F4.8°C 36.6°F2.6°C 85% 4.6 mph SW7.4 kmh SW 6.9 mph11.1 kmh 29.95 in1014.2 mb - 0.00 in0.0 mm 0.00 in0.0 mm
08:55 AM 41.0°F5.0°C 36.6°F2.6°C 84% 4.6 mph SW7.4 kmh SW 5.8 mph9.3 kmh 29.95 in1014.2 mb - 0.00 in0.0 mm 0.00 in0.0 mm
09:00 AM 41.3°F5.2°C 36.8°F2.7°C 84% 2.3 mph WSW3.7 kmh WSW 2.3 mph3.7 kmh 29.95 in1014.2 mb - 0.00 in0.0 mm 0.00 in0.0 mm
09:05 AM 41.7°F5.4°C 37.2°F2.9°C 84% 3.5 mph WSW5.6 kmh WSW 5.8 mph9.3 kmh 29.95 in1014.2 mb - 0.00 in0.0 mm 0.00 in0.0 mm
09:10 AM 42.1°F5.6°C 37.3°F2.9°C 83% 3.5 mph SW5.6 kmh SW 5.8 mph9.3 kmh 29.95 in1014.2 mb - 0.00 in0.0 mm 0.00 in0.0 mm
09:15 AM 42.5°F5.8°C 37.7°F3.2°C 83% 2.3 mph WSW3.7 kmh WSW 3.5 mph5.6 kmh 29.95 in1014.2 mb - 0.00 in0.0 mm 0.00 in0.0 mm
09:20 AM 43.2°F6.2°C 38.1°F3.4°C 82% 3.5 mph SW5.6 kmh SW 4.6 mph7.4 kmh 29.95 in1014.2 mb - 0.00 in0.0 mm 0.00 in0.0 mm
09:25 AM 43.8°F6.6°C 38.7°F3.7°C 82% 5.8 mph WSW9.3 kmh WSW 6.9 mph11.1 kmh 29.95 in1014.2 mb - 0.00 in0.0 mm 0.00 in0.0 mm
09:30 AM 44.4°F6.9°C 39.3°F4.1°C 82% 3.5 mph SW5.6 kmh SW 4.6 mph7.4 kmh 29.95 in1014.2 mb - 0.00 in0.0 mm 0.00 in0.0 mm
09:35 AM 45.2°F7.3°C 39.4°F4.1°C 80% 4.6 mph WSW7.4 kmh WSW 6.9 mph11.1 kmh 29.95 in1014.2 mb - 0.00 in0.0 mm 0.00 in0.0 mm
09:40 AM 45.9°F7.7°C 39.1°F3.9°C 77% 8.1 mph WSW13.0 kmh WSW 9.2 mph14.8 kmh 29.95 in1014.2 mb - 0.00 in0.0 mm 0.00 in0.0 mm
09:45 AM 46.6°F8.1°C 39.4°F4.1°C 76% 5.8 mph WSW9.3 kmh WSW 9.2 mph14.8 kmh 29.94 in1013.9 mb - 0.00 in0.0 mm 0.00 in0.0 mm
09:50 AM 47.1°F8.4°C 38.9°F3.8°C 73% 4.6 mph WSW7.4 kmh WSW 8.1 mph13.0 kmh 29.94 in1013.9 mb - 0.00 in0.0 mm 0.00 in0.0 mm
09:55 AM 47.5°F8.6°C 39.0°F3.9°C 72% 6.9 mph W11.1 kmh W 11.5 mph18.5 kmh 29.94 in1013.9 mb - 0.00 in0.0 mm 0.00 in0.0 mm
10:00 AM 47.9°F8.8°C 38.2°F3.4°C 69% 8.1 mph WSW13.0 kmh WSW 9.2 mph14.8 kmh 29.94 in1013.9 mb - 0.00 in0.0 mm 0.00 in0.0 mm
10:05 AM 48.3°F9.1°C 38.3°F3.5°C 68% 5.8 mph WSW9.3 kmh WSW 5.8 mph9.3 kmh 29.94 in1013.9 mb - 0.00 in0.0 mm 0.00 in0.0 mm
10:10 AM 48.8°F9.3°C 37.9°F3.3°C 66% 9.2 mph WSW14.8 kmh WSW 12.7 mph20.4 kmh 29.94 in1013.9 mb - 0.00 in0.0 mm 0.00 in0.0 mm
10:15 AM 49.3°F9.6°C 38.4°F3.6°C 66% 3.5 mph W5.6 kmh W 10.4 mph16.7 kmh 29.94 in1013.9 mb - 0.00 in0.0 mm 0.00 in0.0 mm
10:20 AM 49.7°F9.8°C 37.6°F3.1°C 63% 8.1 mph WSW13.0 kmh WSW 11.5 mph18.5 kmh 29.93 in1013.5 mb - 0.00 in0.0 mm 0.00 in0.0 mm
10:25 AM 50.0°F10.0°C 37.1°F2.8°C 61% 4.6 mph WSW7.4 kmh WSW 6.9 mph11.1 kmh 29.94 in1013.9 mb - 0.00 in0.0 mm 0.00 in0.0 mm
10:30 AM 50.6°F10.3°C 37.2°F2.9°C 60% 6.9 mph WSW11.1 kmh WSW 9.2 mph14.8 kmh 29.94 in1013.9 mb - 0.00 in0.0 mm 0.00 in0.0 mm
10:35 AM 51.0°F10.6°C 36.7°F2.6°C 58% 9.2 mph SW14.8 kmh SW 11.5 mph18.5 kmh 29.93 in1013.5 mb - 0.00 in0.0 mm 0.00 in0.0 mm
10:40 AM 51.2°F10.7°C 36.5°F2.5°C 57% 10.4 mph WSW16.7 kmh WSW 11.5 mph18.5 kmh 29.93 in1013.5 mb - 0.00 in0.0 mm 0.00 in0.0 mm
10:45 AM 51.4°F10.8°C 36.7°F2.6°C 57% 4.6 mph WSW7.4 kmh WSW 4.6 mph7.4 kmh 29.93 in1013.5 mb - 0.00 in0.0 mm 0.00 in0.0 mm
10:50 AM 51.9°F11.1°C 36.6°F2.6°C 56% 6.9 mph SW11.1 kmh SW 10.4 mph16.7 kmh 29.93 in1013.5 mb - 0.00 in0.0 mm 0.00 in0.0 mm
10:55 AM 52.3°F11.3°C 36.6°F2.6°C 55% 8.1 mph WSW13.0 kmh WSW 8.1 mph13.0 kmh 29.92 in1013.2 mb - 0.00 in0.0 mm 0.00 in0.0 mm
11:00 AM 52.6°F11.4°C 35.4°F1.9°C 52% 9.2 mph WSW14.8 kmh WSW 11.5 mph18.5 kmh 29.92 in1013.2 mb - 0.00 in0.0 mm 0.00 in0.0 mm
11:05 AM 52.8°F11.6°C 35.2°F1.8°C 51% 6.9 mph W11.1 kmh W 11.5 mph18.5 kmh 29.92 in1013.2 mb - 0.00 in0.0 mm 0.00 in0.0 mm
11:10 AM 53.1°F11.7°C 35.5°F1.9°C 51% 8.1 mph W13.0 kmh W 11.5 mph18.5 kmh 29.92 in1013.2 mb - 0.00 in0.0 mm 0.00 in0.0 mm
11:15 AM 53.6°F12.0°C 34.9°F1.6°C 49% 5.8 mph W9.3 kmh W 10.4 mph16.7 kmh 29.93 in1013.5 mb - 0.00 in0.0 mm 0.00 in0.0 mm
11:20 AM 54.0°F12.2°C 35.2°F1.8°C 49% 8.1 mph WSW13.0 kmh WSW 12.7 mph20.4 kmh 29.92 in1013.2 mb - 0.00 in0.0 mm 0.00 in0.0 mm
11:25 AM 54.3°F12.4°C 35.0°F1.7°C 48% 8.1 mph W13.0 kmh W 11.5 mph18.5 kmh 29.92 in1013.2 mb - 0.00 in0.0 mm 0.00 in0.0 mm
11:30 AM 54.7°F12.6°C 35.3°F1.8°C 48% 6.9 mph WSW11.1 kmh WSW 9.2 mph14.8 kmh 29.91 in1012.9 mb - 0.00 in0.0 mm 0.00 in0.0 mm
11:35 AM 55.0°F12.8°C 35.1°F1.7°C 47% 5.8 mph WSW9.3 kmh WSW 4.6 mph7.4 kmh 29.91 in1012.9 mb - 0.00 in0.0 mm 0.00 in0.0 mm
11:40 AM 55.6°F13.1°C 35.2°F1.8°C 46% 10.4 mph WSW16.7 kmh WSW 11.5 mph18.5 kmh 29.91 in1012.9 mb - 0.00 in0.0 mm 0.00 in0.0 mm
11:45 AM 55.8°F13.2°C 34.2°F1.2°C 44% 8.1 mph WSW13.0 kmh WSW 9.2 mph14.8 kmh 29.91 in1012.9 mb - 0.00 in0.0 mm 0.00 in0.0 mm
11:50 AM 56.1°F13.4°C 35.0°F1.7°C 45% 4.6 mph WSW7.4 kmh WSW 10.4 mph16.7 kmh 29.91 in1012.9 mb - 0.00 in0.0 mm 0.00 in0.0 mm
11:55 AM 56.5°F13.6°C 34.2°F1.2°C 43% 8.1 mph SW13.0 kmh SW 8.1 mph13.0 kmh 29.91 in1012.9 mb - 0.00 in0.0 mm 0.00 in0.0 mm
12:00 PM 56.7°F13.7°C 32.6°F0.3°C 40% 10.4 mph SW16.7 kmh SW 15.0 mph24.1 kmh 29.91 in1012.9 mb - 0.00 in0.0 mm 0.00 in0.0 mm
12:05 PM 56.5°F13.6°C 33.1°F0.6°C 41% 4.6 mph WSW7.4 kmh WSW 10.4 mph16.7 kmh 29.91 in1012.9 mb - 0.00 in0.0 mm 0.00 in0.0 mm
12:10 PM 56.8°F13.8°C 33.3°F0.7°C 41% 5.8 mph SW9.3 kmh SW 12.7 mph20.4 kmh 29.90 in1012.5 mb - 0.00 in0.0 mm 0.00 in0.0 mm
12:15 PM 57.1°F13.9°C 31.8°F-0.1°C 38% 9.2 mph WSW14.8 kmh WSW 11.5 mph18.5 kmh 29.90 in1012.5 mb - 0.00 in0.0 mm 0.00 in0.0 mm
12:20 PM 57.4°F14.1°C 32.0°F0.0°C 38% 11.5 mph WSW18.5 kmh WSW 16.1 mph25.9 kmh 29.90 in1012.5 mb - 0.00 in0.0 mm 0.00 in0.0 mm
12:25 PM 57.5°F14.2°C 32.1°F0.1°C 38% 8.1 mph WSW13.0 kmh WSW 12.7 mph20.4 kmh 29.89 in1012.2 mb - 0.00 in0.0 mm 0.00 in0.0 mm
12:30 PM 57.7°F14.3°C 30.9°F-0.6°C 36% 6.9 mph WSW11.1 kmh WSW 10.4 mph16.7 kmh 29.90 in1012.5 mb - 0.00 in0.0 mm 0.00 in0.0 mm
12:35 PM 57.8°F14.3°C 29.6°F-1.3°C 34% 6.9 mph WSW11.1 kmh WSW 8.1 mph13.0 kmh 29.90 in1012.5 mb - 0.00 in0.0 mm 0.00 in0.0 mm
12:40 PM 58.0°F14.4°C 30.5°F-0.8°C 35% 6.9 mph WSW11.1 kmh WSW 12.7 mph20.4 kmh 29.89 in1012.2 mb - 0.00 in0.0 mm 0.00 in0.0 mm
12:45 PM 58.0°F14.4°C 29.8°F-1.2°C 34% 8.1 mph WSW13.0 kmh WSW 11.5 mph18.5 kmh 29.89 in1012.2 mb - 0.00 in0.0 mm 0.00 in0.0 mm
12:50 PM 58.3°F14.6°C 28.5°F-1.9°C 32% 9.2 mph W14.8 kmh W 12.7 mph20.4 kmh 29.89 in1012.2 mb - 0.00 in0.0 mm 0.00 in0.0 mm
12:55 PM 58.5°F14.7°C 29.4°F-1.4°C 33% 5.8 mph SW9.3 kmh SW 11.5 mph18.5 kmh 29.89 in1012.2 mb - 0.00 in0.0 mm 0.00 in0.0 mm
01:00 PM 58.8°F14.9°C 28.2°F-2.1°C 31% 5.8 mph SW9.3 kmh SW 9.2 mph14.8 kmh 29.88 in1011.9 mb - 0.00 in0.0 mm 0.00 in0.0 mm
01:05 PM 59.3°F15.2°C 29.4°F-1.4°C 32% 4.6 mph WSW7.4 kmh WSW 9.2 mph14.8 kmh 29.88 in1011.9 mb - 0.00 in0.0 mm 0.00 in0.0 mm
01:10 PM 59.5°F15.3°C 26.3°F-3.2°C 28% 8.1 mph W13.0 kmh W 10.4 mph16.7 kmh 29.87 in1011.5 mb - 0.00 in0.0 mm 0.00 in0.0 mm
01:15 PM 59.4°F15.2°C 27.9°F-2.3°C 30% 4.6 mph SW7.4 kmh SW 6.9 mph11.1 kmh 29.87 in1011.5 mb - 0.00 in0.0 mm 0.00 in0.0 mm
01:20 PM 59.4°F15.2°C 28.7°F-1.8°C 31% 5.8 mph WSW9.3 kmh WSW 11.5 mph18.5 kmh 29.86 in1011.2 mb - 0.00 in0.0 mm 0.00 in0.0 mm
01:25 PM 59.5°F15.3°C 28.0°F-2.2°C 30% 4.6 mph WSW7.4 kmh WSW 6.9 mph11.1 kmh 29.86 in1011.2 mb - 0.00 in0.0 mm 0.00 in0.0 mm
01:30 PM 59.4°F15.2°C 27.1°F-2.7°C 29% 5.8 mph SW9.3 kmh SW 10.4 mph16.7 kmh 29.86 in1011.2 mb - 0.00 in0.0 mm 0.00 in0.0 mm
01:35 PM 59.5°F15.3°C 27.2°F-2.7°C 29% 4.6 mph W7.4 kmh W 8.1 mph13.0 kmh 29.85 in1010.8 mb - 0.00 in0.0 mm 0.00 in0.0 mm
01:40 PM 59.6°F15.3°C 26.4°F-3.1°C 28% 6.9 mph WSW11.1 kmh WSW 9.2 mph14.8 kmh 29.84 in1010.5 mb - 0.00 in0.0 mm 0.00 in0.0 mm
01:45 PM 59.6°F15.3°C 26.4°F-3.1°C 28% 3.5 mph WSW5.6 kmh WSW 5.8 mph9.3 kmh 29.84 in1010.5 mb - 0.00 in0.0 mm 0.00 in0.0 mm
01:50 PM 59.9°F15.5°C 25.8°F-3.4°C 27% 4.6 mph WSW7.4 kmh WSW 6.9 mph11.1 kmh 29.84 in1010.5 mb - 0.00 in0.0 mm 0.00 in0.0 mm
01:55 PM 60.0°F15.6°C 25.0°F-3.9°C 26% 4.6 mph WSW7.4 kmh WSW 5.8 mph9.3 kmh 29.83 in1010.2 mb - 0.00 in0.0 mm 0.00 in0.0 mm
02:00 PM 60.0°F15.6°C 25.0°F-3.9°C 26% 5.8 mph WNW9.3 kmh WNW 8.1 mph13.0 kmh 29.83 in1010.2 mb - 0.00 in0.0 mm 0.00 in0.0 mm
02:05 PM 60.2°F15.7°C 25.1°F-3.8°C 26% 4.6 mph WNW7.4 kmh WNW 5.8 mph9.3 kmh 29.83 in1010.2 mb - 0.00 in0.0 mm 0.00 in0.0 mm
02:10 PM 60.3°F15.7°C 25.2°F-3.8°C 26% 3.5 mph WSW5.6 kmh WSW 6.9 mph11.1 kmh 29.83 in1010.2 mb - 0.00 in0.0 mm 0.00 in0.0 mm
02:15 PM 60.3°F15.7°C 26.1°F-3.3°C 27% 2.3 mph W3.7 kmh W 9.2 mph14.8 kmh 29.83 in1010.2 mb - 0.00 in0.0 mm 0.00 in0.0 mm
02:20 PM 60.3°F15.7°C 25.2°F-3.8°C 26% 4.6 mph SW7.4 kmh SW 8.1 mph13.0 kmh 29.82 in1009.8 mb - 0.00 in0.0 mm 0.00 in0.0 mm
02:25 PM 60.3°F15.7°C 25.2°F-3.8°C 26% 6.9 mph WSW11.1 kmh WSW 8.1 mph13.0 kmh 29.82 in1009.8 mb - 0.00 in0.0 mm 0.00 in0.0 mm
02:30 PM 60.2°F15.7°C 25.1°F-3.8°C 26% 5.8 mph WSW9.3 kmh WSW 8.1 mph13.0 kmh 29.82 in1009.8 mb - 0.00 in0.0 mm 0.00 in0.0 mm
02:35 PM 60.3°F15.7°C 26.1°F-3.3°C 27% 2.3 mph W3.7 kmh W 3.5 mph5.6 kmh 29.82 in1009.8 mb - 0.00 in0.0 mm 0.00 in0.0 mm
02:40 PM 60.4°F15.8°C 25.3°F-3.7°C 26% 6.9 mph WSW11.1 kmh WSW 8.1 mph13.0 kmh 29.82 in1009.8 mb - 0.00 in0.0 mm 0.00 in0.0 mm
02:45 PM 60.0°F15.6°C 25.0°F-3.9°C 26% 5.8 mph WNW9.3 kmh WNW 8.1 mph13.0 kmh 29.81 in1009.5 mb - 0.00 in0.0 mm 0.00 in0.0 mm
02:50 PM 59.9°F15.5°C 24.9°F-3.9°C 26% 4.6 mph WSW7.4 kmh WSW 6.9 mph11.1 kmh 29.81 in1009.5 mb - 0.00 in0.0 mm 0.00 in0.0 mm
02:55 PM 60.0°F15.6°C 25.9°F-3.4°C 27% 5.8 mph NW9.3 kmh NW 6.9 mph11.1 kmh 29.81 in1009.5 mb - 0.00 in0.0 mm 0.00 in0.0 mm
03:00 PM 60.1°F15.6°C 26.0°F-3.3°C 27% 5.8 mph W9.3 kmh W 6.9 mph11.1 kmh 29.81 in1009.5 mb - 0.00 in0.0 mm 0.00 in0.0 mm
03:05 PM 60.3°F15.7°C 26.1°F-3.3°C 27% 2.3 mph WNW3.7 kmh WNW 3.5 mph5.6 kmh 29.81 in1009.5 mb - 0.00 in0.0 mm 0.00 in0.0 mm
03:10 PM 60.5°F15.8°C 25.4°F-3.7°C 26% 4.6 mph WSW7.4 kmh WSW 5.8 mph9.3 kmh 29.80 in1009.1 mb - 0.00 in0.0 mm 0.00 in0.0 mm
03:15 PM 60.7°F15.9°C 25.6°F-3.6°C 26% 5.8 mph W9.3 kmh W 6.9 mph11.1 kmh 29.79 in1008.8 mb - 0.00 in0.0 mm 0.00 in0.0 mm
03:20 PM 60.6°F15.9°C 25.4°F-3.7°C 26% 1.2 mph NW1.9 kmh NW 2.3 mph3.7 kmh 29.79 in1008.8 mb - 0.00 in0.0 mm 0.00 in0.0 mm
03:25 PM 60.6°F15.9°C 25.5°F-3.6°C 26% 4.6 mph WNW7.4 kmh WNW 8.1 mph13.0 kmh 29.78 in1008.5 mb - 0.00 in0.0 mm 0.00 in0.0 mm
03:30 PM 60.4°F15.8°C 24.4°F-4.2°C 25% 6.9 mph WNW11.1 kmh WNW 9.2 mph14.8 kmh 29.78 in1008.5 mb - 0.00 in0.0 mm 0.00 in0.0 mm
03:35 PM 60.4°F15.8°C 25.3°F-3.7°C 26% 4.6 mph W7.4 kmh W 6.9 mph11.1 kmh 29.78 in1008.5 mb - 0.00 in0.0 mm 0.00 in0.0 mm
03:40 PM 60.4°F15.8°C 25.3°F-3.7°C 26% 4.6 mph NW7.4 kmh NW 4.6 mph7.4 kmh 29.77 in1008.1 mb - 0.00 in0.0 mm 0.00 in0.0 mm
03:45 PM 60.6°F15.9°C 24.5°F-4.2°C 25% 5.8 mph NW9.3 kmh NW 8.1 mph13.0 kmh 29.78 in1008.5 mb - 0.00 in0.0 mm 0.00 in0.0 mm
03:50 PM 60.7°F15.9°C 24.7°F-4.1°C 25% 4.6 mph NW7.4 kmh NW 6.9 mph11.1 kmh 29.77 in1008.1 mb - 0.00 in0.0 mm 0.00 in0.0 mm
03:55 PM 61.0°F16.1°C 24.9°F-3.9°C 25% 5.8 mph NW9.3 kmh NW 8.1 mph13.0 kmh 29.77 in1008.1 mb - 0.00 in0.0 mm 0.00 in0.0 mm
04:00 PM 61.2°F16.2°C 24.1°F-4.4°C 24% 5.8 mph WNW9.3 kmh WNW 9.2 mph14.8 kmh 29.77 in1008.1 mb - 0.00 in0.0 mm 0.00 in0.0 mm
04:05 PM 61.4°F16.3°C 24.2°F-4.3°C 24% 3.5 mph NW5.6 kmh NW 5.8 mph9.3 kmh 29.76 in1007.8 mb - 0.00 in0.0 mm 0.00 in0.0 mm
04:10 PM 61.6°F16.4°C 25.4°F-3.7°C 25% 4.6 mph NW7.4 kmh NW 9.2 mph14.8 kmh 29.76 in1007.8 mb - 0.00 in0.0 mm 0.00 in0.0 mm
04:15 PM 61.7°F16.5°C 24.5°F-4.2°C 24% 5.8 mph NW9.3 kmh NW 8.1 mph13.0 kmh 29.76 in1007.8 mb - 0.00 in0.0 mm 0.00 in0.0 mm
04:20 PM 61.7°F16.5°C 23.5°F-4.7°C 23% 8.1 mph NW13.0 kmh NW 11.5 mph18.5 kmh 29.77 in1008.1 mb - 0.00 in0.0 mm 0.00 in0.0 mm
04:25 PM 61.6°F16.4°C 24.4°F-4.2°C 24% 4.6 mph WNW7.4 kmh WNW 8.1 mph13.0 kmh 29.76 in1007.8 mb - 0.00 in0.0 mm 0.00 in0.0 mm
04:30 PM 61.7°F16.5°C 24.5°F-4.2°C 24% 5.8 mph NW9.3 kmh NW 6.9 mph11.1 kmh 29.76 in1007.8 mb - 0.00 in0.0 mm 0.00 in0.0 mm
04:35 PM 61.7°F16.5°C 23.5°F-4.7°C 23% 6.9 mph NW11.1 kmh NW 8.1 mph13.0 kmh 29.75 in1007.5 mb - 0.00 in0.0 mm 0.00 in0.0 mm
04:40 PM 61.7°F16.5°C 23.5°F-4.7°C 23% 3.5 mph NW5.6 kmh NW 5.8 mph9.3 kmh 29.75 in1007.5 mb - 0.00 in0.0 mm 0.00 in0.0 mm
04:45 PM 61.8°F16.6°C 24.6°F-4.1°C 24% 5.8 mph NNW9.3 kmh NNW 8.1 mph13.0 kmh 29.75 in1007.5 mb - 0.00 in0.0 mm 0.00 in0.0 mm
04:50 PM 61.7°F16.5°C 23.5°F-4.7°C 23% 4.6 mph NW7.4 kmh NW 4.6 mph7.4 kmh 29.76 in1007.8 mb - 0.00 in0.0 mm 0.00 in0.0 mm
04:55 PM 61.7°F16.5°C 24.5°F-4.2°C 24% 4.6 mph NW7.4 kmh NW 4.6 mph7.4 kmh 29.75 in1007.5 mb - 0.00 in0.0 mm 0.00 in0.0 mm
05:00 PM 61.6°F16.4°C 25.4°F-3.7°C 25% 5.8 mph NW9.3 kmh NW 6.9 mph11.1 kmh 29.76 in1007.8 mb - 0.00 in0.0 mm 0.00 in0.0 mm
05:05 PM 61.4°F16.3°C 24.2°F-4.3°C 24% 3.5 mph NW5.6 kmh NW 5.8 mph9.3 kmh 29.76 in1007.8 mb - 0.00 in0.0 mm 0.00 in0.0 mm
05:10 PM 61.3°F16.3°C 24.2°F-4.3°C 24% 4.6 mph NNW7.4 kmh NNW 5.8 mph9.3 kmh 29.75 in1007.5 mb - 0.00 in0.0 mm 0.00 in0.0 mm
05:15 PM 61.2°F16.2°C 24.1°F-4.4°C 24% 2.3 mph NNW3.7 kmh NNW 3.5 mph5.6 kmh 29.75 in1007.5 mb - 0.00 in0.0 mm 0.00 in0.0 mm
05:20 PM 61.1°F16.2°C 25.0°F-3.9°C 25% 4.6 mph NW7.4 kmh NW 5.8 mph9.3 kmh 29.75 in1007.5 mb - 0.00 in0.0 mm 0.00 in0.0 mm
05:25 PM 61.0°F16.1°C 25.8°F-3.4°C 26% 3.5 mph NNW5.6 kmh NNW 5.8 mph9.3 kmh 29.74 in1007.1 mb - 0.00 in0.0 mm 0.00 in0.0 mm
05:30 PM 60.8°F16.0°C 25.6°F-3.6°C 26% 4.6 mph N7.4 kmh N 4.6 mph7.4 kmh 29.75 in1007.5 mb - 0.00 in0.0 mm 0.00 in0.0 mm
05:35 PM 60.6°F15.9°C 25.5°F-3.6°C 26% 2.3 mph NW3.7 kmh NW 3.5 mph5.6 kmh 29.74 in1007.1 mb - 0.00 in0.0 mm 0.00 in0.0 mm
05:40 PM 60.5°F15.8°C 25.4°F-3.7°C 26% 2.3 mph NNW3.7 kmh NNW 3.5 mph5.6 kmh 29.74 in1007.1 mb - 0.00 in0.0 mm 0.00 in0.0 mm
05:45 PM 60.4°F15.8°C 25.3°F-3.7°C 26% 2.3 mph N3.7 kmh N 3.5 mph5.6 kmh 29.74 in1007.1 mb - 0.00 in0.0 mm 0.00 in0.0 mm
05:50 PM 60.4°F15.8°C 25.3°F-3.7°C 26% 2.3 mph N3.7 kmh N 3.5 mph5.6 kmh 29.74 in1007.1 mb - 0.00 in0.0 mm 0.00 in0.0 mm
05:55 PM 60.3°F15.7°C 26.1°F-3.3°C 27% 1.2 mph N1.9 kmh N 1.2 mph1.9 kmh 29.74 in1007.1 mb - 0.00 in0.0 mm 0.00 in0.0 mm
06:00 PM 60.3°F15.7°C 26.1°F-3.3°C 27% Calm Calm 1.2 mph1.9 kmh 29.74 in1007.1 mb - 0.00 in0.0 mm 0.00 in0.0 mm
06:05 PM 60.2°F15.7°C 26.9°F-2.8°C 28% Calm Calm -- 29.75 in1007.5 mb - 0.00 in0.0 mm 0.00 in0.0 mm
06:10 PM 60.1°F15.6°C 26.0°F-3.3°C 27% Calm Calm -- 29.75 in1007.5 mb - 0.00 in0.0 mm 0.00 in0.0 mm
06:15 PM 60.0°F15.6°C 25.9°F-3.4°C 27% 1.2 mph N1.9 kmh N 1.2 mph1.9 kmh 29.75 in1007.5 mb - 0.00 in0.0 mm 0.00 in0.0 mm
06:20 PM 59.8°F15.4°C 26.6°F-3.0°C 28% 1.2 mph N1.9 kmh N 2.3 mph3.7 kmh 29.75 in1007.5 mb - 0.00 in0.0 mm 0.00 in0.0 mm
06:25 PM 59.5°F15.3°C 26.3°F-3.2°C 28% Calm Calm 1.2 mph1.9 kmh 29.75 in1007.5 mb - 0.00 in0.0 mm 0.00 in0.0 mm
06:30 PM 59.2°F15.1°C 26.9°F-2.8°C 29% 1.2 mph N1.9 kmh N 2.3 mph3.7 kmh 29.76 in1007.8 mb - 0.00 in0.0 mm 0.00 in0.0 mm
06:35 PM 58.9°F14.9°C 26.7°F-2.9°C 29% Calm Calm 1.2 mph1.9 kmh 29.76 in1007.8 mb - 0.00 in0.0 mm 0.00 in0.0 mm
06:40 PM 58.7°F14.8°C 26.5°F-3.1°C 29% 1.2 mph N1.9 kmh N 2.3 mph3.7 kmh 29.76 in1007.8 mb - 0.00 in0.0 mm 0.00 in0.0 mm
06:45 PM 58.5°F14.7°C 26.3°F-3.2°C 29% Calm Calm 1.2 mph1.9 kmh 29.75 in1007.5 mb - 0.00 in0.0 mm 0.00 in0.0 mm
06:50 PM 58.4°F14.7°C 27.1°F-2.7°C 30% 1.2 mph N1.9 kmh N 1.2 mph1.9 kmh 29.75 in1007.5 mb - 0.00 in0.0 mm 0.00 in0.0 mm
06:55 PM 58.2°F14.6°C 26.1°F-3.3°C 29% 1.2 mph N1.9 kmh N 2.3 mph3.7 kmh 29.75 in1007.5 mb - 0.00 in0.0 mm 0.00 in0.0 mm
07:00 PM 58.0°F14.4°C 26.7°F-2.9°C 30% Calm Calm 2.3 mph3.7 kmh 29.75 in1007.5 mb - 0.00 in0.0 mm 0.00 in0.0 mm
07:05 PM 57.8°F14.3°C 26.5°F-3.1°C 30% Calm Calm -- 29.75 in1007.5 mb - 0.00 in0.0 mm 0.00 in0.0 mm
07:10 PM 57.6°F14.2°C 27.2°F-2.7°C 31% Calm Calm -- 29.75 in1007.5 mb - 0.00 in0.0 mm 0.00 in0.0 mm
07:15 PM 57.5°F14.2°C 27.1°F-2.7°C 31% Calm Calm -- 29.75 in1007.5 mb - 0.00 in0.0 mm 0.00 in0.0 mm
07:20 PM 57.4°F14.1°C 27.7°F-2.4°C 32% 1.2 mph N1.9 kmh N 2.3 mph3.7 kmh 29.75 in1007.5 mb - 0.00 in0.0 mm 0.00 in0.0 mm
07:25 PM 57.1°F13.9°C 28.2°F-2.1°C 33% Calm Calm -- 29.75 in1007.5 mb - 0.00 in0.0 mm 0.00 in0.0 mm
07:30 PM 56.9°F13.8°C 28.1°F-2.2°C 33% Calm Calm 2.3 mph3.7 kmh 29.76 in1007.8 mb - 0.00 in0.0 mm 0.00 in0.0 mm
07:35 PM 56.6°F13.7°C 28.6°F-1.9°C 34% 2.3 mph SW3.7 kmh SW 3.5 mph5.6 kmh 29.76 in1007.8 mb - 0.00 in0.0 mm 0.00 in0.0 mm
07:40 PM 56.4°F13.6°C 28.3°F-2.1°C 34% 2.3 mph SW3.7 kmh SW 3.5 mph5.6 kmh 29.76 in1007.8 mb - 0.00 in0.0 mm 0.00 in0.0 mm
07:45 PM 56.2°F13.4°C 27.4°F-2.6°C 33% 1.2 mph SW1.9 kmh SW 2.3 mph3.7 kmh 29.75 in1007.5 mb - 0.00 in0.0 mm 0.00 in0.0 mm
07:50 PM 56.2°F13.4°C 27.4°F-2.6°C 33% 3.5 mph SW5.6 kmh SW 4.6 mph7.4 kmh 29.74 in1007.1 mb - 0.00 in0.0 mm 0.00 in0.0 mm
07:55 PM 56.3°F13.5°C 27.5°F-2.5°C 33% 2.3 mph WSW3.7 kmh WSW 3.5 mph5.6 kmh 29.74 in1007.1 mb - 0.00 in0.0 mm 0.00 in0.0 mm
08:00 PM 56.4°F13.6°C 27.6°F-2.4°C 33% 2.3 mph WSW3.7 kmh WSW 3.5 mph5.6 kmh 29.75 in1007.5 mb - 0.00 in0.0 mm 0.00 in0.0 mm
08:05 PM 56.4°F13.6°C 27.6°F-2.4°C 33% 1.2 mph WSW1.9 kmh WSW 3.5 mph5.6 kmh 29.75 in1007.5 mb - 0.00 in0.0 mm 0.00 in0.0 mm
08:10 PM 56.4°F13.6°C 27.6°F-2.4°C 33% 2.3 mph WSW3.7 kmh WSW 3.5 mph5.6 kmh 29.74 in1007.1 mb - 0.00 in0.0 mm 0.00 in0.0 mm
08:15 PM 56.4°F13.6°C 28.3°F-2.1°C 34% 2.3 mph WSW3.7 kmh WSW 3.5 mph5.6 kmh 29.74 in1007.1 mb - 0.00 in0.0 mm 0.00 in0.0 mm
08:20 PM 56.3°F13.5°C 28.3°F-2.1°C 34% 2.3 mph WSW3.7 kmh WSW 3.5 mph5.6 kmh 29.75 in1007.5 mb - 0.00 in0.0 mm 0.00 in0.0 mm
08:25 PM 56.2°F13.4°C 28.2°F-2.1°C 34% 1.2 mph W1.9 kmh W 2.3 mph3.7 kmh 29.75 in1007.5 mb - 0.00 in0.0 mm 0.00 in0.0 mm
08:30 PM 56.0°F13.3°C 28.7°F-1.8°C 35% 1.2 mph W1.9 kmh W 3.5 mph5.6 kmh 29.75 in1007.5 mb - 0.00 in0.0 mm 0.00 in0.0 mm
08:35 PM 55.9°F13.3°C 28.6°F-1.9°C 35% 2.3 mph WNW3.7 kmh WNW 3.5 mph5.6 kmh 29.75 in1007.5 mb - 0.00 in0.0 mm 0.00 in0.0 mm
08:40 PM 55.8°F13.2°C 29.2°F-1.6°C 36% 2.3 mph W3.7 kmh W 3.5 mph5.6 kmh 29.75 in1007.5 mb - 0.00 in0.0 mm 0.00 in0.0 mm
08:45 PM 55.6°F13.1°C 29.0°F-1.7°C 36% 2.3 mph W3.7 kmh W 3.5 mph5.6 kmh 29.75 in1007.5 mb - 0.00 in0.0 mm 0.00 in0.0 mm
08:50 PM 55.4°F13.0°C 30.2°F-1.0°C 38% 2.3 mph W3.7 kmh W 3.5 mph5.6 kmh 29.76 in1007.8 mb - 0.00 in0.0 mm 0.00 in0.0 mm
08:55 PM 55.1°F12.8°C 29.9°F-1.2°C 38% 3.5 mph W5.6 kmh W 4.6 mph7.4 kmh 29.75 in1007.5 mb - 0.00 in0.0 mm 0.00 in0.0 mm
09:00 PM 54.9°F12.7°C 30.4°F-0.9°C 39% 3.5 mph W5.6 kmh W 5.8 mph9.3 kmh 29.75 in1007.5 mb - 0.00 in0.0 mm 0.00 in0.0 mm
09:05 PM 54.7°F12.6°C 30.8°F-0.7°C 40% 3.5 mph W5.6 kmh W 5.8 mph9.3 kmh 29.75 in1007.5 mb - 0.00 in0.0 mm 0.00 in0.0 mm
09:10 PM 54.5°F12.5°C 30.6°F-0.8°C 40% 3.5 mph WSW5.6 kmh WSW 3.5 mph5.6 kmh 29.75 in1007.5 mb - 0.00 in0.0 mm 0.00 in0.0 mm
09:15 PM 54.3°F12.4°C 31.1°F-0.5°C 41% 4.6 mph WSW7.4 kmh WSW 4.6 mph7.4 kmh 29.75 in1007.5 mb - 0.00 in0.0 mm 0.00 in0.0 mm
09:20 PM 54.1°F12.3°C 30.9°F-0.6°C 41% 3.5 mph WSW5.6 kmh WSW 4.6 mph7.4 kmh 29.75 in1007.5 mb - 0.00 in0.0 mm 0.00 in0.0 mm
09:25 PM 54.0°F12.2°C 31.4°F-0.3°C 42% 2.3 mph WSW3.7 kmh WSW 3.5 mph5.6 kmh 29.75 in1007.5 mb - 0.00 in0.0 mm 0.00 in0.0 mm
09:30 PM 53.8°F12.1°C 31.2°F-0.4°C 42% 3.5 mph W5.6 kmh W 3.5 mph5.6 kmh 29.75 in1007.5 mb - 0.00 in0.0 mm 0.00 in0.0 mm
09:35 PM 53.5°F11.9°C 31.5°F-0.3°C 43% 3.5 mph WSW5.6 kmh WSW 5.8 mph9.3 kmh 29.75 in1007.5 mb - 0.00 in0.0 mm 0.00 in0.0 mm
09:40 PM 53.1°F11.7°C 31.2°F-0.4°C 43% 3.5 mph WSW5.6 kmh WSW 5.8 mph9.3 kmh 29.75 in1007.5 mb - 0.00 in0.0 mm 0.00 in0.0 mm
09:45 PM 52.9°F11.6°C 31.5°F-0.3°C 44% 3.5 mph W5.6 kmh W 3.5 mph5.6 kmh 29.75 in1007.5 mb - 0.00 in0.0 mm 0.00 in0.0 mm
09:50 PM 52.6°F11.4°C 31.8°F-0.1°C 45% 3.5 mph W5.6 kmh W 5.8 mph9.3 kmh 29.75 in1007.5 mb - 0.00 in0.0 mm 0.00 in0.0 mm
09:55 PM 52.4°F11.3°C 32.2°F0.1°C 46% 4.6 mph NW7.4 kmh NW 6.9 mph11.1 kmh 29.76 in1007.8 mb - 0.00 in0.0 mm 0.00 in0.0 mm
10:00 PM 52.2°F11.2°C 32.6°F0.3°C 47% 3.5 mph WNW5.6 kmh WNW 5.8 mph9.3 kmh 29.75 in1007.5 mb - 0.00 in0.0 mm 0.00 in0.0 mm
10:05 PM 52.2°F11.2°C 32.6°F0.3°C 47% 4.6 mph W7.4 kmh W 5.8 mph9.3 kmh 29.75 in1007.5 mb - 0.00 in0.0 mm 0.00 in0.0 mm
10:10 PM 52.3°F11.3°C 33.2°F0.7°C 48% 4.6 mph W7.4 kmh W 4.6 mph7.4 kmh 29.76 in1007.8 mb - 0.00 in0.0 mm 0.00 in0.0 mm
10:15 PM 52.4°F11.3°C 33.3°F0.7°C 48% 5.8 mph W9.3 kmh W 8.1 mph13.0 kmh 29.75 in1007.5 mb - 0.00 in0.0 mm 0.00 in0.0 mm
10:20 PM 52.6°F11.4°C 34.0°F1.1°C 49% 6.9 mph W11.1 kmh W 9.2 mph14.8 kmh 29.75 in1007.5 mb - 0.00 in0.0 mm 0.00 in0.0 mm
10:25 PM 52.7°F11.5°C 34.6°F1.4°C 50% 6.9 mph W11.1 kmh W 11.5 mph18.5 kmh 29.75 in1007.5 mb - 0.00 in0.0 mm 0.00 in0.0 mm
10:30 PM 52.7°F11.5°C 34.6°F1.4°C 50% 5.8 mph WSW9.3 kmh WSW 10.4 mph16.7 kmh 29.75 in1007.5 mb - 0.00 in0.0 mm 0.00 in0.0 mm
10:35 PM 52.6°F11.4°C 35.0°F1.7°C 51% 5.8 mph W9.3 kmh W 8.1 mph13.0 kmh 29.75 in1007.5 mb - 0.00 in0.0 mm 0.00 in0.0 mm
10:40 PM 52.2°F11.2°C 35.1°F1.7°C 52% 6.9 mph WSW11.1 kmh WSW 12.7 mph20.4 kmh 29.75 in1007.5 mb - 0.00 in0.0 mm 0.00 in0.0 mm
10:45 PM 51.8°F11.0°C 35.7°F2.1°C 54% 5.8 mph WSW9.3 kmh WSW 11.5 mph18.5 kmh 29.75 in1007.5 mb - 0.00 in0.0 mm 0.00 in0.0 mm
10:50 PM 51.4°F10.8°C 35.3°F1.8°C 54% 6.9 mph WSW11.1 kmh WSW 9.2 mph14.8 kmh 29.75 in1007.5 mb - 0.00 in0.0 mm 0.00 in0.0 mm
10:55 PM 51.2°F10.7°C 35.6°F2.0°C 55% 5.8 mph WSW9.3 kmh WSW 8.1 mph13.0 kmh 29.75 in1007.5 mb - 0.00 in0.0 mm 0.00 in0.0 mm
11:00 PM 50.9°F10.5°C 35.8°F2.1°C 56% 6.9 mph WSW11.1 kmh WSW 11.5 mph18.5 kmh 29.75 in1007.5 mb - 0.00 in0.0 mm 0.00 in0.0 mm
11:05 PM 50.6°F10.3°C 35.5°F1.9°C 56% 6.9 mph WSW11.1 kmh WSW 10.4 mph16.7 kmh 29.74 in1007.1 mb - 0.00 in0.0 mm 0.00 in0.0 mm
11:10 PM 50.3°F10.2°C 35.7°F2.1°C 57% 3.5 mph WSW5.6 kmh WSW 5.8 mph9.3 kmh 29.74 in1007.1 mb - 0.00 in0.0 mm 0.00 in0.0 mm
11:15 PM 50.0°F10.0°C 35.4°F1.9°C 57% 4.6 mph W7.4 kmh W 6.9 mph11.1 kmh 29.75 in1007.5 mb - 0.00 in0.0 mm 0.00 in0.0 mm
11:20 PM 49.9°F9.9°C 35.2°F1.8°C 57% 4.6 mph WSW7.4 kmh WSW 6.9 mph11.1 kmh 29.75 in1007.5 mb - 0.00 in0.0 mm 0.00 in0.0 mm
11:25 PM 49.7°F9.8°C 35.5°F1.9°C 58% 4.6 mph WSW7.4 kmh WSW 6.9 mph11.1 kmh 29.75 in1007.5 mb - 0.00 in0.0 mm 0.00 in0.0 mm
11:30 PM 49.6°F9.8°C 35.4°F1.9°C 58% 2.3 mph W3.7 kmh W 6.9 mph11.1 kmh 29.76 in1007.8 mb - 0.00 in0.0 mm 0.00 in0.0 mm
11:35 PM 49.5°F9.7°C 35.3°F1.8°C 58% 3.5 mph W5.6 kmh W 4.6 mph7.4 kmh 29.76 in1007.8 mb - 0.00 in0.0 mm 0.00 in0.0 mm
11:40 PM 49.4°F9.7°C 35.3°F1.8°C 58% 5.8 mph WSW9.3 kmh WSW 8.1 mph13.0 kmh 29.76 in1007.8 mb - 0.00 in0.0 mm 0.00 in0.0 mm
11:45 PM 49.3°F9.6°C 35.5°F1.9°C 59% 5.8 mph WSW9.3 kmh WSW 9.2 mph14.8 kmh 29.76 in1007.8 mb - 0.00 in0.0 mm 0.00 in0.0 mm
11:50 PM 49.0°F9.4°C 35.3°F1.8°C 59% 8.1 mph WSW13.0 kmh WSW 11.5 mph18.5 kmh 29.76 in1007.8 mb - 0.00 in0.0 mm 0.00 in0.0 mm
11:55 PM 48.7°F9.3°C 35.5°F1.9°C 60% 6.9 mph WSW11.1 kmh WSW 8.1 mph13.0 kmh 29.75 in1007.5 mb - 0.00 in0.0 mm 0.00 in0.0 mm